sensor_id;sensor_type;location;lat;lon;timestamp;P1;durP1;ratioP1;P2;durP2;ratioP2
64401;SDS011;50724;42.376;23.768;2023-03-01T00:02:20;34.25;;;4.57;;
64401;SDS011;50724;42.376;23.768;2023-03-01T00:05:21;17.30;;;4.70;;
64401;SDS011;50724;42.376;23.768;2023-03-01T00:08:21;8.70;;;2.90;;
64401;SDS011;50724;42.376;23.768;2023-03-01T00:11:23;7.90;;;3.23;;
64401;SDS011;50724;42.376;23.768;2023-03-01T00:14:28;5.60;;;2.40;;
64401;SDS011;50724;42.376;23.768;2023-03-01T00:17:29;5.70;;;2.20;;
64401;SDS011;50724;42.376;23.768;2023-03-01T00:20:29;3.53;;;1.80;;
64401;SDS011;50724;42.376;23.768;2023-03-01T00:23:30;4.03;;;1.90;;
64401;SDS011;50724;42.376;23.768;2023-03-01T00:26:30;3.35;;;1.42;;
64401;SDS011;50724;42.376;23.768;2023-03-01T00:29:31;4.43;;;1.65;;
64401;SDS011;50724;42.376;23.768;2023-03-01T00:32:32;4.60;;;2.08;;
64401;SDS011;50724;42.376;23.768;2023-03-01T00:35:33;7.10;;;2.30;;
64401;SDS011;50724;42.376;23.768;2023-03-01T00:38:37;6.93;;;2.50;;
64401;SDS011;50724;42.376;23.768;2023-03-01T00:41:39;8.95;;;2.53;;
64401;SDS011;50724;42.376;23.768;2023-03-01T00:44:40;17.35;;;3.47;;
64401;SDS011;50724;42.376;23.768;2023-03-01T00:47:40;20.30;;;3.03;;
64401;SDS011;50724;42.376;23.768;2023-03-01T00:50:41;13.20;;;2.53;;
64401;SDS011;50724;42.376;23.768;2023-03-01T00:53:41;19.27;;;2.60;;
64401;SDS011;50724;42.376;23.768;2023-03-01T00:56:42;18.20;;;3.47;;
64401;SDS011;50724;42.376;23.768;2023-03-01T00:59:43;49.73;;;4.27;;
64401;SDS011;50724;42.376;23.768;2023-03-01T01:02:43;19.53;;;3.03;;
64401;SDS011;50724;42.376;23.768;2023-03-01T01:05:44;16.90;;;3.00;;
64401;SDS011;50724;42.376;23.768;2023-03-01T01:08:44;102.57;;;6.90;;
64401;SDS011;50724;42.376;23.768;2023-03-01T01:11:49;35.40;;;3.63;;
64401;SDS011;50724;42.376;23.768;2023-03-01T01:14:50;37.15;;;4.07;;
64401;SDS011;50724;42.376;23.768;2023-03-01T01:17:51;92.33;;;7.57;;
64401;SDS011;50724;42.376;23.768;2023-03-01T01:20:51;42.58;;;4.05;;
64401;SDS011;50724;42.376;23.768;2023-03-01T01:23:52;59.20;;;5.73;;
64401;SDS011;50724;42.376;23.768;2023-03-01T01:26:53;24.13;;;4.32;;
64401;SDS011;50724;42.376;23.768;2023-03-01T01:29:53;34.72;;;5.50;;
64401;SDS011;50724;42.376;23.768;2023-03-01T01:32:53;36.83;;;5.73;;
64401;SDS011;50724;42.376;23.768;2023-03-01T01:35:54;59.15;;;6.97;;
64401;SDS011;50724;42.376;23.768;2023-03-01T01:38:55;42.20;;;4.68;;
64401;SDS011;50724;42.376;23.768;2023-03-01T01:41:55;137.32;;;9.52;;
64401;SDS011;50724;42.376;23.768;2023-03-01T01:48:43;110.78;;;7.97;;
64401;SDS011;50724;42.376;23.768;2023-03-01T01:51:51;81.60;;;5.68;;
64401;SDS011;50724;42.376;23.768;2023-03-01T01:54:58;87.32;;;7.13;;
64401;SDS011;50724;42.376;23.768;2023-03-01T01:58:04;70.18;;;6.22;;
64401;SDS011;50724;42.376;23.768;2023-03-01T02:01:07;117.50;;;8.00;;
64401;SDS011;50724;42.376;23.768;2023-03-01T02:04:08;147.45;;;10.88;;
64401;SDS011;50724;42.376;23.768;2023-03-01T02:07:15;115.03;;;8.25;;
64401;SDS011;50724;42.376;23.768;2023-03-01T02:10:19;110.30;;;8.18;;
64401;SDS011;50724;42.376;23.768;2023-03-01T02:13:22;21.75;;;3.67;;
64401;SDS011;50724;42.376;23.768;2023-03-01T02:16:23;15.73;;;3.22;;
64401;SDS011;50724;42.376;23.768;2023-03-01T02:22:54;10.25;;;2.92;;
64401;SDS011;50724;42.376;23.768;2023-03-01T02:25:57;6.65;;;2.72;;
64401;SDS011;50724;42.376;23.768;2023-03-01T02:29:21;9.45;;;3.08;;
64401;SDS011;50724;42.376;23.768;2023-03-01T02:32:23;18.23;;;3.72;;
64401;SDS011;50724;42.376;23.768;2023-03-01T02:35:25;8.73;;;3.00;;
64401;SDS011;50724;42.376;23.768;2023-03-01T02:38:25;7.00;;;3.08;;
64401;SDS011;50724;42.376;23.768;2023-03-01T02:41:26;6.68;;;2.60;;
64401;SDS011;50724;42.376;23.768;2023-03-01T02:44:30;5.75;;;2.78;;
64401;SDS011;50724;42.376;23.768;2023-03-01T02:47:31;5.35;;;2.70;;
64401;SDS011;50724;42.376;23.768;2023-03-01T02:57:12;3.22;;;1.60;;
64401;SDS011;50724;42.376;23.768;2023-03-01T03:00:17;3.10;;;1.48;;
64401;SDS011;50724;42.376;23.768;2023-03-01T03:03:21;3.40;;;1.67;;
64401;SDS011;50724;42.376;23.768;2023-03-01T03:06:21;4.18;;;2.00;;
64401;SDS011;50724;42.376;23.768;2023-03-01T03:09:22;2.87;;;1.50;;
64401;SDS011;50724;42.376;23.768;2023-03-01T03:12:22;3.25;;;1.63;;
64401;SDS011;50724;42.376;23.768;2023-03-01T03:15:23;4.03;;;2.13;;
64401;SDS011;50724;42.376;23.768;2023-03-01T03:18:24;3.42;;;1.52;;
64401;SDS011;50724;42.376;23.768;2023-03-01T03:21:27;3.53;;;1.60;;
64401;SDS011;50724;42.376;23.768;2023-03-01T03:24:28;2.83;;;1.40;;
64401;SDS011;50724;42.376;23.768;2023-03-01T03:27:37;3.05;;;1.67;;
64401;SDS011;50724;42.376;23.768;2023-03-01T03:30:39;3.88;;;1.85;;
64401;SDS011;50724;42.376;23.768;2023-03-01T03:33:40;2.13;;;1.20;;
64401;SDS011;50724;42.376;23.768;2023-03-01T03:36:41;3.60;;;1.70;;
64401;SDS011;50724;42.376;23.768;2023-03-01T03:39:41;3.78;;;1.55;;
64401;SDS011;50724;42.376;23.768;2023-03-01T03:42:42;3.53;;;1.60;;
64401;SDS011;50724;42.376;23.768;2023-03-01T03:45:43;4.30;;;2.23;;
64401;SDS011;50724;42.376;23.768;2023-03-01T03:48:45;4.43;;;2.10;;
64401;SDS011;50724;42.376;23.768;2023-03-01T03:51:45;5.00;;;2.33;;
64401;SDS011;50724;42.376;23.768;2023-03-01T03:54:46;5.07;;;2.05;;
64401;SDS011;50724;42.376;23.768;2023-03-01T03:57:59;4.50;;;2.05;;
64401;SDS011;50724;42.376;23.768;2023-03-01T04:01:06;5.45;;;2.38;;
64401;SDS011;50724;42.376;23.768;2023-03-01T04:04:06;6.43;;;2.50;;
64401;SDS011;50724;42.376;23.768;2023-03-01T04:07:07;3.78;;;1.70;;
64401;SDS011;50724;42.376;23.768;2023-03-01T04:10:09;4.03;;;1.80;;
64401;SDS011;50724;42.376;23.768;2023-03-01T04:13:14;3.90;;;1.60;;
64401;SDS011;50724;42.376;23.768;2023-03-01T04:16:17;4.20;;;1.75;;
64401;SDS011;50724;42.376;23.768;2023-03-01T04:19:17;2.80;;;1.23;;
64401;SDS011;50724;42.376;23.768;2023-03-01T04:22:18;2.95;;;1.58;;
64401;SDS011;50724;42.376;23.768;2023-03-01T04:25:19;2.88;;;1.35;;
64401;SDS011;50724;42.376;23.768;2023-03-01T04:28:20;3.17;;;1.65;;
64401;SDS011;50724;42.376;23.768;2023-03-01T04:31:24;2.33;;;1.23;;
64401;SDS011;50724;42.376;23.768;2023-03-01T04:34:24;3.03;;;1.50;;
64401;SDS011;50724;42.376;23.768;2023-03-01T04:37:26;3.25;;;1.50;;
64401;SDS011;50724;42.376;23.768;2023-03-01T04:40:27;2.70;;;1.17;;
64401;SDS011;50724;42.376;23.768;2023-03-01T04:43:36;1.10;;;0.80;;
64401;SDS011;50724;42.376;23.768;2023-03-01T04:46:38;2.65;;;1.10;;
64401;SDS011;50724;42.376;23.768;2023-03-01T04:49:39;2.08;;;1.00;;
64401;SDS011;50724;42.376;23.768;2023-03-01T04:52:39;5.03;;;1.40;;
64401;SDS011;50724;42.376;23.768;2023-03-01T04:55:40;3.95;;;1.50;;
64401;SDS011;50724;42.376;23.768;2023-03-01T04:58:40;4.80;;;1.58;;
64401;SDS011;50724;42.376;23.768;2023-03-01T05:01:41;2.00;;;1.10;;
64401;SDS011;50724;42.376;23.768;2023-03-01T05:04:42;2.10;;;1.08;;
64401;SDS011;50724;42.376;23.768;2023-03-01T05:07:43;1.75;;;0.90;;
64401;SDS011;50724;42.376;23.768;2023-03-01T05:10:51;1.65;;;1.02;;
64401;SDS011;50724;42.376;23.768;2023-03-01T05:13:52;2.83;;;1.20;;
64401;SDS011;50724;42.376;23.768;2023-03-01T05:16:54;2.95;;;1.20;;
64401;SDS011;50724;42.376;23.768;2023-03-01T05:19:55;3.60;;;1.03;;
64401;SDS011;50724;42.376;23.768;2023-03-01T05:22:56;1.67;;;0.77;;
64401;SDS011;50724;42.376;23.768;2023-03-01T05:25:59;2.15;;;1.15;;
64401;SDS011;50724;42.376;23.768;2023-03-01T05:29:01;2.05;;;1.10;;
64401;SDS011;50724;42.376;23.768;2023-03-01T05:32:04;3.42;;;2.00;;
64401;SDS011;50724;42.376;23.768;2023-03-01T05:35:05;1.77;;;0.90;;
64401;SDS011;50724;42.376;23.768;2023-03-01T05:38:05;2.45;;;0.95;;
64401;SDS011;50724;42.376;23.768;2023-03-01T05:41:12;3.95;;;1.20;;
64401;SDS011;50724;42.376;23.768;2023-03-01T05:44:14;1.88;;;1.10;;
64401;SDS011;50724;42.376;23.768;2023-03-01T05:47:15;3.58;;;1.90;;
64401;SDS011;50724;42.376;23.768;2023-03-01T05:53:20;5.70;;;2.08;;
64401;SDS011;50724;42.376;23.768;2023-03-01T05:56:21;3.90;;;1.88;;
64401;SDS011;50724;42.376;23.768;2023-03-01T05:59:22;4.90;;;2.30;;
64401;SDS011;50724;42.376;23.768;2023-03-01T06:02:22;4.47;;;1.90;;
64401;SDS011;50724;42.376;23.768;2023-03-01T06:05:23;10.55;;;3.38;;
64401;SDS011;50724;42.376;23.768;2023-03-01T06:08:24;3.08;;;1.30;;
64401;SDS011;50724;42.376;23.768;2023-03-01T06:11:27;3.15;;;1.55;;
64401;SDS011;50724;42.376;23.768;2023-03-01T06:14:27;2.53;;;1.08;;
64401;SDS011;50724;42.376;23.768;2023-03-01T06:17:31;2.15;;;1.10;;
64401;SDS011;50724;42.376;23.768;2023-03-01T06:20:37;2.17;;;1.05;;
64401;SDS011;50724;42.376;23.768;2023-03-01T06:23:37;2.13;;;1.23;;
64401;SDS011;50724;42.376;23.768;2023-03-01T06:26:38;11.32;;;4.00;;
64401;SDS011;50724;42.376;23.768;2023-03-01T06:29:38;25.60;;;5.72;;
64401;SDS011;50724;42.376;23.768;2023-03-01T06:32:39;25.13;;;5.20;;
64401;SDS011;50724;42.376;23.768;2023-03-01T06:35:42;4.32;;;1.95;;
64401;SDS011;50724;42.376;23.768;2023-03-01T06:38:43;7.28;;;2.85;;
64401;SDS011;50724;42.376;23.768;2023-03-01T06:41:44;1.55;;;0.90;;
64401;SDS011;50724;42.376;23.768;2023-03-01T06:44:45;4.07;;;1.75;;
64401;SDS011;50724;42.376;23.768;2023-03-01T06:47:46;2.10;;;1.10;;
64401;SDS011;50724;42.376;23.768;2023-03-01T06:50:46;10.93;;;2.35;;
64401;SDS011;50724;42.376;23.768;2023-03-01T06:53:47;4.85;;;1.70;;
64401;SDS011;50724;42.376;23.768;2023-03-01T06:56:48;19.43;;;6.60;;
64401;SDS011;50724;42.376;23.768;2023-03-01T06:59:49;3.63;;;2.13;;
64401;SDS011;50724;42.376;23.768;2023-03-01T07:02:52;3.95;;;1.73;;
64401;SDS011;50724;42.376;23.768;2023-03-01T07:09:02;4.45;;;2.45;;
64401;SDS011;50724;42.376;23.768;2023-03-01T07:12:03;2.67;;;1.35;;
64401;SDS011;50724;42.376;23.768;2023-03-01T07:15:04;6.32;;;2.70;;
64401;SDS011;50724;42.376;23.768;2023-03-01T07:18:04;42.28;;;8.43;;
64401;SDS011;50724;42.376;23.768;2023-03-01T07:21:08;16.95;;;7.72;;
64401;SDS011;50724;42.376;23.768;2023-03-01T07:24:11;6.03;;;3.10;;
64401;SDS011;50724;42.376;23.768;2023-03-01T07:27:11;7.90;;;3.85;;
64401;SDS011;50724;42.376;23.768;2023-03-01T07:30:12;9.90;;;4.93;;
64401;SDS011;50724;42.376;23.768;2023-03-01T07:33:12;10.50;;;5.47;;
64401;SDS011;50724;42.376;23.768;2023-03-01T07:36:13;8.40;;;3.95;;
64401;SDS011;50724;42.376;23.768;2023-03-01T07:39:13;34.97;;;7.68;;
64401;SDS011;50724;42.376;23.768;2023-03-01T07:42:14;80.03;;;16.10;;
64401;SDS011;50724;42.376;23.768;2023-03-01T07:45:14;30.92;;;9.02;;
64401;SDS011;50724;42.376;23.768;2023-03-01T07:48:15;8.98;;;4.38;;
64401;SDS011;50724;42.376;23.768;2023-03-01T07:51:15;17.85;;;4.82;;
64401;SDS011;50724;42.376;23.768;2023-03-01T07:54:16;36.83;;;11.90;;
64401;SDS011;50724;42.376;23.768;2023-03-01T07:57:16;7.65;;;3.42;;
64401;SDS011;50724;42.376;23.768;2023-03-01T08:00:17;101.72;;;22.77;;
64401;SDS011;50724;42.376;23.768;2023-03-01T08:03:18;286.80;;;52.45;;
64401;SDS011;50724;42.376;23.768;2023-03-01T08:06:18;141.35;;;14.30;;
64401;SDS011;50724;42.376;23.768;2023-03-01T08:09:19;58.63;;;6.50;;
64401;SDS011;50724;42.376;23.768;2023-03-01T08:12:20;30.77;;;6.95;;
64401;SDS011;50724;42.376;23.768;2023-03-01T08:15:21;47.97;;;5.90;;
64401;SDS011;50724;42.376;23.768;2023-03-01T08:18:21;55.08;;;7.90;;
64401;SDS011;50724;42.376;23.768;2023-03-01T08:21:22;38.65;;;6.82;;
64401;SDS011;50724;42.376;23.768;2023-03-01T08:24:22;95.95;;;7.82;;
64401;SDS011;50724;42.376;23.768;2023-03-01T08:27:23;122.90;;;19.95;;
64401;SDS011;50724;42.376;23.768;2023-03-01T08:30:23;211.68;;;38.55;;
64401;SDS011;50724;42.376;23.768;2023-03-01T08:33:24;54.88;;;7.80;;
64401;SDS011;50724;42.376;23.768;2023-03-01T08:36:25;82.47;;;11.32;;
64401;SDS011;50724;42.376;23.768;2023-03-01T08:39:27;59.00;;;7.97;;
64401;SDS011;50724;42.376;23.768;2023-03-01T08:42:28;49.03;;;5.85;;
64401;SDS011;50724;42.376;23.768;2023-03-01T08:45:28;76.80;;;9.03;;
64401;SDS011;50724;42.376;23.768;2023-03-01T08:48:29;56.17;;;7.88;;
64401;SDS011;50724;42.376;23.768;2023-03-01T08:51:29;142.32;;;23.73;;
64401;SDS011;50724;42.376;23.768;2023-03-01T08:54:31;342.75;;;76.55;;
64401;SDS011;50724;42.376;23.768;2023-03-01T08:57:32;72.05;;;13.02;;
64401;SDS011;50724;42.376;23.768;2023-03-01T09:00:41;30.67;;;6.75;;
64401;SDS011;50724;42.376;23.768;2023-03-01T09:03:42;38.88;;;5.05;;
64401;SDS011;50724;42.376;23.768;2023-03-01T09:06:43;6.68;;;3.60;;
64401;SDS011;50724;42.376;23.768;2023-03-01T09:09:44;58.97;;;9.20;;
64401;SDS011;50724;42.376;23.768;2023-03-01T09:12:44;151.45;;;32.67;;
64401;SDS011;50724;42.376;23.768;2023-03-01T09:15:45;13.38;;;4.00;;
64401;SDS011;50724;42.376;23.768;2023-03-01T09:18:48;189.68;;;60.78;;
64401;SDS011;50724;42.376;23.768;2023-03-01T09:21:50;16.20;;;7.43;;
64401;SDS011;50724;42.376;23.768;2023-03-01T09:24:53;57.65;;;8.05;;
64401;SDS011;50724;42.376;23.768;2023-03-01T09:27:54;132.27;;;17.00;;
64401;SDS011;50724;42.376;23.768;2023-03-01T09:30:57;41.28;;;7.60;;
64401;SDS011;50724;42.376;23.768;2023-03-01T09:33:59;44.22;;;6.70;;
64401;SDS011;50724;42.376;23.768;2023-03-01T09:36:59;16.50;;;6.05;;
64401;SDS011;50724;42.376;23.768;2023-03-01T09:40:02;82.00;;;9.65;;
64401;SDS011;50724;42.376;23.768;2023-03-01T09:43:15;266.35;;;51.50;;
64401;SDS011;50724;42.376;23.768;2023-03-01T09:46:23;341.05;;;64.13;;
64401;SDS011;50724;42.376;23.768;2023-03-01T09:49:35;77.00;;;19.35;;
64401;SDS011;50724;42.376;23.768;2023-03-01T09:52:46;25.33;;;8.05;;
64401;SDS011;50724;42.376;23.768;2023-03-01T09:56:24;11.63;;;6.60;;
64401;SDS011;50724;42.376;23.768;2023-03-01T10:02:46;13.20;;;5.25;;
64401;SDS011;50724;42.376;23.768;2023-03-01T10:05:55;39.90;;;7.35;;
64401;SDS011;50724;42.376;23.768;2023-03-01T10:09:10;92.88;;;28.67;;
64401;SDS011;50724;42.376;23.768;2023-03-01T10:12:16;28.77;;;12.13;;
64401;SDS011;50724;42.376;23.768;2023-03-01T10:15:22;12.93;;;5.25;;
64401;SDS011;50724;42.376;23.768;2023-03-01T10:18:30;22.83;;;8.40;;
64401;SDS011;50724;42.376;23.768;2023-03-01T10:21:34;12.63;;;5.65;;
64401;SDS011;50724;42.376;23.768;2023-03-01T10:24:41;40.40;;;15.02;;
64401;SDS011;50724;42.376;23.768;2023-03-01T10:27:51;35.03;;;10.45;;
64401;SDS011;50724;42.376;23.768;2023-03-01T10:30:54;21.80;;;8.07;;
64401;SDS011;50724;42.376;23.768;2023-03-01T10:33:58;25.08;;;8.07;;
64401;SDS011;50724;42.376;23.768;2023-03-01T10:37:15;23.20;;;5.43;;
64401;SDS011;50724;42.376;23.768;2023-03-01T10:40:21;31.05;;;7.15;;
64401;SDS011;50724;42.376;23.768;2023-03-01T10:43:22;15.55;;;5.10;;
64401;SDS011;50724;42.376;23.768;2023-03-01T10:49:32;46.07;;;8.13;;
64401;SDS011;50724;42.376;23.768;2023-03-01T10:52:34;87.45;;;10.95;;
64401;SDS011;50724;42.376;23.768;2023-03-01T10:55:37;38.85;;;11.07;;
64401;SDS011;50724;42.376;23.768;2023-03-01T10:58:41;100.65;;;12.95;;
64401;SDS011;50724;42.376;23.768;2023-03-01T11:02:03;87.07;;;13.57;;
64401;SDS011;50724;42.376;23.768;2023-03-01T11:05:16;88.00;;;11.70;;
64401;SDS011;50724;42.376;23.768;2023-03-01T11:11:44;18.00;;;7.65;;
64401;SDS011;50724;42.376;23.768;2023-03-01T11:14:46;23.63;;;7.32;;
64401;SDS011;50724;42.376;23.768;2023-03-01T11:17:49;18.17;;;6.07;;
64401;SDS011;50724;42.376;23.768;2023-03-01T11:29:43;9.27;;;4.65;;
64401;SDS011;50724;42.376;23.768;2023-03-01T11:36:00;14.90;;;4.53;;
64401;SDS011;50724;42.376;23.768;2023-03-01T11:42:42;18.02;;;7.80;;
64401;SDS011;50724;42.376;23.768;2023-03-01T11:45:56;31.70;;;7.95;;
64401;SDS011;50724;42.376;23.768;2023-03-01T11:52:35;12.02;;;5.63;;
64401;SDS011;50724;42.376;23.768;2023-03-01T11:59:28;67.20;;;8.20;;
64401;SDS011;50724;42.376;23.768;2023-03-01T12:05:57;14.80;;;5.45;;
64401;SDS011;50724;42.376;23.768;2023-03-01T12:12:30;17.02;;;4.72;;
64401;SDS011;50724;42.376;23.768;2023-03-01T12:18:50;24.45;;;5.60;;
64401;SDS011;50724;42.376;23.768;2023-03-01T12:22:16;17.10;;;5.00;;
64401;SDS011;50724;42.376;23.768;2023-03-01T12:25:36;10.18;;;3.30;;
64401;SDS011;50724;42.376;23.768;2023-03-01T12:32:34;19.40;;;5.13;;
64401;SDS011;50724;42.376;23.768;2023-03-01T12:42:22;21.50;;;6.07;;
64401;SDS011;50724;42.376;23.768;2023-03-01T12:51:59;22.17;;;5.93;;
64401;SDS011;50724;42.376;23.768;2023-03-01T12:58:42;25.08;;;8.32;;
64401;SDS011;50724;42.376;23.768;2023-03-01T13:08:39;89.45;;;23.73;;
64401;SDS011;50724;42.376;23.768;2023-03-01T13:11:42;74.03;;;18.73;;
64401;SDS011;50724;42.376;23.768;2023-03-01T13:14:46;72.63;;;19.63;;
64401;SDS011;50724;42.376;23.768;2023-03-01T13:17:46;99.88;;;24.80;;
64401;SDS011;50724;42.376;23.768;2023-03-01T13:20:48;162.65;;;39.72;;
64401;SDS011;50724;42.376;23.768;2023-03-01T13:23:51;105.22;;;26.77;;
64401;SDS011;50724;42.376;23.768;2023-03-01T13:33:43;22.00;;;6.43;;
64401;SDS011;50724;42.376;23.768;2023-03-01T13:36:48;41.47;;;9.52;;
64401;SDS011;50724;42.376;23.768;2023-03-01T13:39:49;24.05;;;7.13;;
64401;SDS011;50724;42.376;23.768;2023-03-01T13:42:50;83.10;;;18.17;;
64401;SDS011;50724;42.376;23.768;2023-03-01T13:45:52;18.05;;;6.00;;
64401;SDS011;50724;42.376;23.768;2023-03-01T13:48:54;15.18;;;5.65;;
64401;SDS011;50724;42.376;23.768;2023-03-01T13:54:57;54.97;;;10.10;;
64401;SDS011;50724;42.376;23.768;2023-03-01T13:58:00;55.42;;;9.88;;
64401;SDS011;50724;42.376;23.768;2023-03-01T14:01:05;104.30;;;14.40;;
64401;SDS011;50724;42.376;23.768;2023-03-01T14:04:18;74.00;;;10.45;;
64401;SDS011;50724;42.376;23.768;2023-03-01T14:10:31;25.75;;;5.30;;
64401;SDS011;50724;42.376;23.768;2023-03-01T14:23:21;36.10;;;6.82;;
64401;SDS011;50724;42.376;23.768;2023-03-01T14:26:23;16.02;;;7.22;;
64401;SDS011;50724;42.376;23.768;2023-03-01T14:29:29;32.92;;;9.77;;
64401;SDS011;50724;42.376;23.768;2023-03-01T14:32:35;27.75;;;8.68;;
64401;SDS011;50724;42.376;23.768;2023-03-01T14:35:36;30.42;;;6.93;;
64401;SDS011;50724;42.376;23.768;2023-03-01T14:38:40;41.42;;;6.18;;
64401;SDS011;50724;42.376;23.768;2023-03-01T14:41:42;18.05;;;6.47;;
64401;SDS011;50724;42.376;23.768;2023-03-01T14:44:44;33.72;;;12.15;;
64401;SDS011;50724;42.376;23.768;2023-03-01T14:47:47;22.35;;;6.75;;
64401;SDS011;50724;42.376;23.768;2023-03-01T14:50:48;12.10;;;6.05;;
64401;SDS011;50724;42.376;23.768;2023-03-01T14:53:50;15.98;;;7.82;;
64401;SDS011;50724;42.376;23.768;2023-03-01T14:56:52;41.53;;;7.28;;
64401;SDS011;50724;42.376;23.768;2023-03-01T14:59:57;35.92;;;6.78;;
64401;SDS011;50724;42.376;23.768;2023-03-01T15:03:12;20.70;;;7.00;;
64401;SDS011;50724;42.376;23.768;2023-03-01T15:06:18;32.08;;;8.55;;
64401;SDS011;50724;42.376;23.768;2023-03-01T15:09:20;197.70;;;38.42;;
64401;SDS011;50724;42.376;23.768;2023-03-01T15:18:28;19.23;;;9.05;;
64401;SDS011;50724;42.376;23.768;2023-03-01T15:24:34;39.08;;;9.65;;
64401;SDS011;50724;42.376;23.768;2023-03-01T15:27:36;28.23;;;11.02;;
64401;SDS011;50724;42.376;23.768;2023-03-01T15:30:36;21.55;;;9.90;;
64401;SDS011;50724;42.376;23.768;2023-03-01T15:33:37;28.95;;;9.35;;
64401;SDS011;50724;42.376;23.768;2023-03-01T15:36:45;25.33;;;9.45;;
64401;SDS011;50724;42.376;23.768;2023-03-01T15:39:53;36.75;;;13.13;;
64401;SDS011;50724;42.376;23.768;2023-03-01T15:42:55;56.35;;;16.67;;
64401;SDS011;50724;42.376;23.768;2023-03-01T15:45:56;40.63;;;17.15;;
64401;SDS011;50724;42.376;23.768;2023-03-01T15:48:59;24.10;;;9.63;;
64401;SDS011;50724;42.376;23.768;2023-03-01T15:52:01;20.85;;;9.63;;
64401;SDS011;50724;42.376;23.768;2023-03-01T15:55:03;24.80;;;10.57;;
64401;SDS011;50724;42.376;23.768;2023-03-01T15:58:10;25.40;;;10.60;;
64401;SDS011;50724;42.376;23.768;2023-03-01T16:01:14;22.45;;;10.23;;
64401;SDS011;50724;42.376;23.768;2023-03-01T16:07:22;81.30;;;19.17;;
64401;SDS011;50724;42.376;23.768;2023-03-01T16:10:23;26.13;;;10.65;;
64401;SDS011;50724;42.376;23.768;2023-03-01T16:13:24;27.25;;;12.35;;
64401;SDS011;50724;42.376;23.768;2023-03-01T16:16:25;25.75;;;12.95;;
64401;SDS011;50724;42.376;23.768;2023-03-01T16:19:25;33.33;;;14.20;;
64401;SDS011;50724;42.376;23.768;2023-03-01T16:22:26;28.08;;;11.50;;
64401;SDS011;50724;42.376;23.768;2023-03-01T16:25:27;26.02;;;10.82;;
64401;SDS011;50724;42.376;23.768;2023-03-01T16:28:28;28.13;;;11.18;;
64401;SDS011;50724;42.376;23.768;2023-03-01T16:31:28;64.65;;;18.73;;
64401;SDS011;50724;42.376;23.768;2023-03-01T16:34:28;97.60;;;36.33;;
64401;SDS011;50724;42.376;23.768;2023-03-01T16:37:31;31.05;;;12.77;;
64401;SDS011;50724;42.376;23.768;2023-03-01T16:40:32;30.58;;;11.93;;
64401;SDS011;50724;42.376;23.768;2023-03-01T16:43:33;30.23;;;11.98;;
64401;SDS011;50724;42.376;23.768;2023-03-01T16:46:33;27.45;;;11.50;;
64401;SDS011;50724;42.376;23.768;2023-03-01T16:49:34;28.73;;;11.57;;
64401;SDS011;50724;42.376;23.768;2023-03-01T16:52:34;113.60;;;25.58;;
64401;SDS011;50724;42.376;23.768;2023-03-01T16:55:34;54.80;;;16.13;;
64401;SDS011;50724;42.376;23.768;2023-03-01T16:58:35;126.72;;;28.88;;
64401;SDS011;50724;42.376;23.768;2023-03-01T17:01:37;56.65;;;14.40;;
64401;SDS011;50724;42.376;23.768;2023-03-01T17:04:40;122.13;;;17.10;;
64401;SDS011;50724;42.376;23.768;2023-03-01T17:07:41;140.82;;;17.80;;
64401;SDS011;50724;42.376;23.768;2023-03-01T17:10:42;176.85;;;18.58;;
64401;SDS011;50724;42.376;23.768;2023-03-01T17:13:44;140.75;;;16.80;;
64401;SDS011;50724;42.376;23.768;2023-03-01T17:16:46;189.57;;;19.70;;
64401;SDS011;50724;42.376;23.768;2023-03-01T17:19:46;143.13;;;23.13;;
64401;SDS011;50724;42.376;23.768;2023-03-01T17:22:47;218.17;;;23.97;;
64401;SDS011;50724;42.376;23.768;2023-03-01T17:25:56;104.75;;;13.65;;
64401;SDS011;50724;42.376;23.768;2023-03-01T17:28:57;71.07;;;15.40;;
64401;SDS011;50724;42.376;23.768;2023-03-01T17:32:06;124.65;;;18.13;;
64401;SDS011;50724;42.376;23.768;2023-03-01T17:35:07;57.25;;;13.85;;
64401;SDS011;50724;42.376;23.768;2023-03-01T17:38:10;52.88;;;13.13;;
64401;SDS011;50724;42.376;23.768;2023-03-01T17:41:11;90.97;;;13.82;;
64401;SDS011;50724;42.376;23.768;2023-03-01T17:44:11;130.93;;;16.23;;
64401;SDS011;50724;42.376;23.768;2023-03-01T17:47:12;147.02;;;21.83;;
64401;SDS011;50724;42.376;23.768;2023-03-01T17:50:12;173.05;;;18.27;;
64401;SDS011;50724;42.376;23.768;2023-03-01T17:53:13;156.13;;;21.13;;
64401;SDS011;50724;42.376;23.768;2023-03-01T17:56:13;90.38;;;17.55;;
64401;SDS011;50724;42.376;23.768;2023-03-01T17:59:15;156.60;;;20.30;;
64401;SDS011;50724;42.376;23.768;2023-03-01T18:02:18;132.48;;;16.65;;
64401;SDS011;50724;42.376;23.768;2023-03-01T18:05:19;73.60;;;15.50;;
64401;SDS011;50724;42.376;23.768;2023-03-01T18:08:19;116.00;;;14.60;;
64401;SDS011;50724;42.376;23.768;2023-03-01T18:11:21;65.67;;;13.10;;
64401;SDS011;50724;42.376;23.768;2023-03-01T18:14:22;84.05;;;15.77;;
64401;SDS011;50724;42.376;23.768;2023-03-01T18:17:23;63.67;;;14.57;;
64401;SDS011;50724;42.376;23.768;2023-03-01T18:20:24;120.82;;;17.67;;
64401;SDS011;50724;42.376;23.768;2023-03-01T18:23:26;122.05;;;16.38;;
64401;SDS011;50724;42.376;23.768;2023-03-01T18:26:27;103.28;;;14.88;;
64401;SDS011;50724;42.376;23.768;2023-03-01T18:29:28;68.82;;;14.75;;
64401;SDS011;50724;42.376;23.768;2023-03-01T18:32:28;113.95;;;15.73;;
64401;SDS011;50724;42.376;23.768;2023-03-01T18:35:29;106.32;;;14.50;;
64401;SDS011;50724;42.376;23.768;2023-03-01T18:38:30;69.25;;;11.55;;
64401;SDS011;50724;42.376;23.768;2023-03-01T18:41:31;61.28;;;11.55;;
64401;SDS011;50724;42.376;23.768;2023-03-01T18:44:32;97.38;;;11.60;;
64401;SDS011;50724;42.376;23.768;2023-03-01T18:47:33;88.00;;;12.88;;
64401;SDS011;50724;42.376;23.768;2023-03-01T18:50:33;70.70;;;12.32;;
64401;SDS011;50724;42.376;23.768;2023-03-01T18:53:34;82.47;;;13.00;;
64401;SDS011;50724;42.376;23.768;2023-03-01T18:56:34;121.97;;;15.30;;
64401;SDS011;50724;42.376;23.768;2023-03-01T18:59:35;55.72;;;12.15;;
64401;SDS011;50724;42.376;23.768;2023-03-01T19:02:35;97.28;;;15.10;;
64401;SDS011;50724;42.376;23.768;2023-03-01T19:05:35;32.70;;;11.18;;
64401;SDS011;50724;42.376;23.768;2023-03-01T19:08:40;45.72;;;14.75;;
64401;SDS011;50724;42.376;23.768;2023-03-01T19:11:42;43.67;;;14.43;;
64401;SDS011;50724;42.376;23.768;2023-03-01T19:14:42;72.80;;;13.02;;
64401;SDS011;50724;42.376;23.768;2023-03-01T19:17:43;150.00;;;17.35;;
64401;SDS011;50724;42.376;23.768;2023-03-01T19:20:43;56.65;;;11.57;;
64401;SDS011;50724;42.376;23.768;2023-03-01T19:23:44;24.43;;;8.70;;
64401;SDS011;50724;42.376;23.768;2023-03-01T19:26:44;22.85;;;8.70;;
64401;SDS011;50724;42.376;23.768;2023-03-01T19:29:45;24.75;;;8.10;;
64401;SDS011;50724;42.376;23.768;2023-03-01T19:32:45;21.50;;;8.07;;
64401;SDS011;50724;42.376;23.768;2023-03-01T19:35:45;25.08;;;8.63;;
64401;SDS011;50724;42.376;23.768;2023-03-01T19:38:46;22.02;;;8.13;;
64401;SDS011;50724;42.376;23.768;2023-03-01T19:41:47;22.33;;;7.22;;
64401;SDS011;50724;42.376;23.768;2023-03-01T19:44:47;19.83;;;7.22;;
64401;SDS011;50724;42.376;23.768;2023-03-01T19:47:48;18.93;;;6.73;;
64401;SDS011;50724;42.376;23.768;2023-03-01T19:50:50;16.63;;;6.78;;